createdAt,value
2017-08-05T00:02:07.873Z,16.90
2017-08-05T00:04:36.110Z,16.90
2017-08-05T00:07:03.608Z,16.90
2017-08-05T00:09:31.878Z,16.90
2017-08-05T00:11:59.343Z,16.90
2017-08-05T00:14:27.575Z,16.90
2017-08-05T00:16:55.091Z,16.90
2017-08-05T00:19:22.556Z,16.80
2017-08-05T00:21:50.037Z,16.80
2017-08-05T00:24:17.523Z,16.80
2017-08-05T00:26:45.057Z,16.80
2017-08-05T00:29:12.544Z,16.80
2017-08-05T00:31:40.005Z,16.80
2017-08-05T00:34:08.246Z,16.70
2017-08-05T00:36:35.737Z,16.70
2017-08-05T00:39:03.979Z,16.70
2017-08-05T00:41:31.500Z,16.70
2017-08-05T00:43:58.973Z,16.70
2017-08-05T00:46:26.428Z,16.60
2017-08-05T00:48:53.899Z,16.60
2017-08-05T00:51:21.365Z,16.60
2017-08-05T00:53:48.861Z,16.50
2017-08-05T00:56:17.147Z,16.60
2017-08-05T00:58:45.407Z,16.60
2017-08-05T01:01:12.868Z,16.60
2017-08-05T01:03:41.148Z,16.60
2017-08-05T01:06:09.415Z,16.50
2017-08-05T01:08:36.978Z,16.50
2017-08-05T01:11:05.253Z,16.60
2017-08-05T01:13:33.532Z,16.60
2017-08-05T01:16:00.988Z,16.60
2017-08-05T01:18:29.251Z,16.60
2017-08-05T01:20:56.808Z,16.60
2017-08-05T01:23:24.271Z,16.60
2017-08-05T01:25:51.732Z,16.60
2017-08-05T01:28:19.191Z,16.60
2017-08-05T01:30:47.419Z,16.60
2017-08-05T01:33:14.903Z,16.60
2017-08-05T01:35:42.469Z,16.60
2017-08-05T01:38:09.939Z,16.60
2017-08-05T01:40:38.194Z,16.60
2017-08-05T01:43:05.662Z,16.60
2017-08-05T01:45:33.214Z,16.60
2017-08-05T01:48:00.819Z,16.60
2017-08-05T01:50:28.343Z,16.60
2017-08-05T01:52:56.620Z,16.60
2017-08-05T01:55:24.168Z,16.50
2017-08-05T01:57:51.645Z,16.50
2017-08-05T02:00:19.899Z,16.50
2017-08-05T02:02:47.366Z,16.50
2017-08-05T02:05:15.631Z,16.60
2017-08-05T02:07:43.196Z,16.60
2017-08-05T02:10:10.754Z,16.50
2017-08-05T02:12:38.318Z,16.60
2017-08-05T02:15:05.772Z,16.60
2017-08-05T02:17:34.007Z,16.60
2017-08-05T02:20:01.471Z,16.60
2017-08-05T02:22:28.947Z,16.60
2017-08-05T02:24:56.509Z,16.60
2017-08-05T02:27:23.978Z,16.60
2017-08-05T02:29:51.435Z,16.60
2017-08-05T02:32:19.711Z,16.60
2017-08-05T02:34:47.983Z,16.60
2017-08-05T02:37:16.237Z,16.60
2017-08-05T02:39:44.689Z,16.60
2017-08-05T02:42:12.157Z,16.50
2017-08-05T02:44:39.660Z,16.50
2017-08-05T02:47:07.896Z,16.50
2017-08-05T02:49:35.386Z,16.50
2017-08-05T02:52:02.841Z,16.40
2017-08-05T02:54:30.406Z,16.40
2017-08-05T02:56:57.864Z,16.40
2017-08-05T02:59:26.127Z,16.30
2017-08-05T03:01:53.679Z,16.30
2017-08-05T03:04:21.142Z,16.30
2017-08-05T03:06:48.704Z,16.30
2017-08-05T03:09:17.046Z,16.30
2017-08-05T03:11:44.512Z,16.30
2017-08-05T03:14:11.986Z,16.30
2017-08-05T03:16:39.461Z,16.30
2017-08-05T03:19:07.682Z,16.20
2017-08-05T03:21:35.151Z,16.20
2017-08-05T03:24:02.641Z,16.30
2017-08-05T03:26:30.871Z,16.20
2017-08-05T03:28:58.339Z,16.20
2017-08-05T03:31:25.815Z,16.10
2017-08-05T03:33:53.382Z,16.10
2017-08-05T03:36:20.857Z,16.10
2017-08-05T03:38:49.131Z,16.10
2017-08-05T03:41:17.391Z,16.10
2017-08-05T03:43:44.855Z,16.10
2017-08-05T03:46:13.135Z,16.10
2017-08-05T03:48:41.351Z,16.10
2017-08-05T03:51:08.852Z,16.10
2017-08-05T03:53:36.325Z,16.10
2017-08-05T03:56:04.597Z,16.10
2017-08-05T03:58:32.861Z,16.00
2017-08-05T04:01:00.323Z,16.00
2017-08-05T04:03:27.782Z,16.00
2017-08-05T04:05:56.010Z,16.00
2017-08-05T04:08:23.561Z,16.00
2017-08-05T04:10:51.067Z,16.10
2017-08-05T04:13:18.565Z,16.10
2017-08-05T04:15:46.103Z,16.10
2017-08-05T04:18:14.368Z,16.10
2017-08-05T04:20:42.623Z,16.10
2017-08-05T04:23:10.096Z,16.10
2017-08-05T04:25:38.335Z,16.20
2017-08-05T04:28:05.802Z,16.10
2017-08-05T04:30:33.277Z,16.10
2017-08-05T04:33:00.744Z,16.10
2017-08-05T04:35:29.047Z,16.10
2017-08-05T04:37:56.652Z,16.10
2017-08-05T04:40:24.136Z,16.10
2017-08-05T04:42:52.397Z,16.20
2017-08-05T04:45:19.854Z,16.10
2017-08-05T04:47:47.320Z,16.10
2017-08-05T04:50:15.543Z,16.20
2017-08-05T04:52:43.056Z,16.20
2017-08-05T04:55:11.302Z,16.20
2017-08-05T04:57:38.826Z,16.20
2017-08-05T05:00:06.338Z,16.20
2017-08-05T05:02:34.583Z,16.20
2017-08-05T05:05:02.052Z,16.20
2017-08-05T05:07:29.517Z,16.20
2017-08-05T05:09:57.088Z,16.30
2017-08-05T05:12:24.547Z,16.30
2017-08-05T05:14:52.815Z,16.40
2017-08-05T05:17:20.273Z,16.30
2017-08-05T05:19:47.728Z,16.40
2017-08-05T05:22:15.208Z,16.40
2017-08-05T05:24:42.683Z,16.50
2017-08-05T05:27:10.149Z,16.50
2017-08-05T05:29:37.620Z,16.60
2017-08-05T05:32:05.086Z,16.60
2017-08-05T05:34:32.536Z,16.60
2017-08-05T05:36:59.994Z,16.60
2017-08-05T05:39:27.593Z,16.60
2017-08-05T05:41:55.832Z,16.70
2017-08-05T05:44:23.472Z,16.70
2017-08-05T05:46:51.026Z,16.80
2017-08-05T05:49:18.490Z,16.90
2017-08-05T05:51:45.962Z,17.00
2017-08-05T05:54:13.431Z,17.10
2017-08-05T05:56:40.927Z,17.10
2017-08-05T05:59:08.401Z,17.20
2017-08-05T06:01:35.875Z,17.40
2017-08-05T06:04:03.335Z,17.50
2017-08-05T06:06:30.839Z,17.60
2017-08-05T06:08:59.123Z,17.60
2017-08-05T06:11:27.374Z,17.70
2017-08-05T06:13:54.996Z,17.70
2017-08-05T06:16:22.515Z,17.80
2017-08-05T06:18:50.730Z,17.80
2017-08-05T06:21:18.244Z,17.80
2017-08-05T06:23:46.642Z,17.80
2017-08-05T06:26:14.111Z,17.80
2017-08-05T06:28:41.651Z,17.80
2017-08-05T06:31:09.910Z,17.80
2017-08-05T06:33:38.374Z,17.80
2017-08-05T06:36:05.831Z,17.80
2017-08-05T06:38:33.295Z,17.80
2017-08-05T06:41:00.849Z,17.80
2017-08-05T06:43:28.320Z,17.80
2017-08-05T06:45:56.556Z,18.00
2017-08-05T06:48:24.055Z,17.90
2017-08-05T06:50:52.426Z,18.00
2017-08-05T06:53:20.706Z,18.00
2017-08-05T06:55:48.958Z,18.00
2017-08-05T06:58:16.577Z,18.00
2017-08-05T07:00:44.106Z,18.00
2017-08-05T07:03:12.349Z,18.00
2017-08-05T07:05:39.819Z,18.00
2017-08-05T07:08:07.283Z,18.00
2017-08-05T07:10:35.516Z,18.10
2017-08-05T07:13:03.024Z,18.00
2017-08-05T07:15:31.259Z,18.30
2017-08-05T07:17:58.746Z,18.30
2017-08-05T07:20:27.024Z,18.30
2017-08-05T07:22:55.284Z,18.30
2017-08-05T07:25:22.857Z,18.30
2017-08-05T07:27:50.323Z,18.40
2017-08-05T07:30:18.587Z,18.80
2017-08-05T07:32:46.048Z,18.80
2017-08-05T07:35:14.300Z,19.00
2017-08-05T07:37:41.776Z,19.00
2017-08-05T07:40:09.255Z,19.00
2017-08-05T07:42:36.840Z,19.00
2017-08-05T07:45:04.310Z,19.00
2017-08-05T07:47:31.853Z,19.10
2017-08-05T07:49:59.347Z,19.40
2017-08-05T07:52:26.939Z,19.70
2017-08-05T07:54:55.216Z,20.20
2017-08-05T07:57:23.471Z,20.30
2017-08-05T07:59:50.939Z,20.30
2017-08-05T08:02:19.231Z,20.50
2017-08-05T08:04:46.705Z,20.50
2017-08-05T08:07:14.157Z,20.50
2017-08-05T08:09:41.675Z,20.70
2017-08-05T08:12:09.406Z,20.80
2017-08-05T08:14:36.894Z,20.90
2017-08-05T08:17:04.363Z,21.00
2017-08-05T08:19:32.654Z,21.10
2017-08-05T08:22:00.909Z,21.40
2017-08-05T08:24:28.375Z,21.30
2017-08-05T08:26:56.628Z,21.40
2017-08-05T08:29:24.099Z,21.40
2017-08-05T08:31:52.334Z,21.40
2017-08-05T08:34:19.815Z,21.40
2017-08-05T08:36:47.279Z,21.40
2017-08-05T08:39:14.859Z,21.30
2017-08-05T08:41:42.410Z,21.20
2017-08-05T08:44:09.961Z,21.20
2017-08-05T08:46:38.234Z,20.90
2017-08-05T08:49:05.703Z,20.80
2017-08-05T08:51:34.015Z,20.40
2017-08-05T08:54:01.511Z,20.40
2017-08-05T08:56:28.995Z,20.10
2017-08-05T08:58:57.263Z,19.40
2017-08-05T09:01:25.490Z,19.20
2017-08-05T09:03:52.967Z,19.20
2017-08-05T09:06:20.471Z,19.10
2017-08-05T09:08:47.969Z,19.10
2017-08-05T09:11:15.447Z,19.20
2017-08-05T09:13:42.916Z,19.30
2017-08-05T09:16:10.380Z,19.40
2017-08-05T09:18:37.844Z,19.40
2017-08-05T09:21:06.122Z,19.50
2017-08-05T09:23:33.622Z,19.50
2017-08-05T09:26:01.133Z,19.50
2017-08-05T09:28:28.630Z,19.50
2017-08-05T09:30:56.088Z,19.60
2017-08-05T09:33:23.543Z,19.70
2017-08-05T09:35:51.764Z,19.90
2017-08-05T09:38:19.991Z,20.30
2017-08-05T09:40:47.476Z,20.30
2017-08-05T09:43:14.951Z,20.70
2017-08-05T09:45:42.426Z,21.00
2017-08-05T09:48:09.895Z,21.30
2017-08-05T09:50:37.348Z,21.10
2017-08-05T09:53:04.836Z,21.10
2017-08-05T09:55:32.295Z,21.00
2017-08-05T09:58:00.624Z,20.80
2017-08-05T10:00:28.104Z,20.60
2017-08-05T10:02:55.591Z,20.60
2017-08-05T10:05:23.078Z,20.60
2017-08-05T10:07:50.568Z,20.60
2017-08-05T10:10:18.023Z,20.60
2017-08-05T10:12:45.550Z,20.90
2017-08-05T10:15:13.026Z,21.30
2017-08-05T10:17:41.388Z,21.90
2017-08-05T10:20:08.859Z,21.90
2017-08-05T10:22:37.114Z,22.00
2017-08-05T10:25:04.677Z,22.00
2017-08-05T10:27:32.397Z,22.10
2017-08-05T10:29:59.879Z,22.20
2017-08-05T10:32:27.332Z,22.10
2017-08-05T10:34:54.876Z,22.10
2017-08-05T10:37:22.358Z,22.00
2017-08-05T10:39:49.816Z,21.80
2017-08-05T10:42:17.382Z,21.60
2017-08-05T10:44:44.947Z,21.30
2017-08-05T10:47:12.403Z,21.30
2017-08-05T10:49:40.623Z,21.40
2017-08-05T10:52:08.087Z,21.40
2017-08-05T10:54:35.539Z,21.60
2017-08-05T10:57:03.012Z,21.70
2017-08-05T10:59:30.509Z,21.80
2017-08-05T11:01:57.987Z,21.80
2017-08-05T11:04:25.515Z,21.90
2017-08-05T11:06:52.988Z,21.90
2017-08-05T11:09:21.220Z,21.90
2017-08-05T11:11:48.679Z,21.90
2017-08-05T11:14:16.289Z,22.00
2017-08-05T11:16:43.824Z,22.10
2017-08-05T11:19:11.367Z,22.10
2017-08-05T11:24:13.528Z,21.60
2017-08-05T11:26:41.005Z,21.60
2017-08-05T11:29:08.479Z,21.50
2017-08-05T11:31:36.709Z,21.50
2017-08-05T11:34:04.589Z,21.40
2017-08-05T11:36:32.074Z,21.60
2017-08-05T11:38:59.577Z,21.80
2017-08-05T11:41:27.108Z,22.10
2017-08-05T11:43:55.359Z,22.30
2017-08-05T11:46:22.819Z,22.30
2017-08-05T11:48:50.381Z,22.60
2017-08-05T11:51:17.939Z,22.80
2017-08-05T11:53:45.399Z,23.00
2017-08-05T11:56:13.636Z,23.10
2017-08-05T11:58:41.135Z,23.10
2017-08-05T12:01:08.613Z,23.20
2017-08-05T12:03:36.075Z,23.20
2017-08-05T12:06:03.541Z,22.80
2017-08-05T12:08:31.019Z,22.70
2017-08-05T12:10:58.514Z,22.70
2017-08-05T12:13:26.025Z,22.60
2017-08-05T12:15:53.488Z,22.20
2017-08-05T12:18:20.987Z,21.80
2017-08-05T12:20:49.239Z,21.80
2017-08-05T12:23:16.734Z,21.70
2017-08-05T12:25:44.972Z,21.80
2017-08-05T12:28:12.436Z,21.80
2017-08-05T12:30:39.943Z,21.90
2017-08-05T12:33:07.423Z,22.00
2017-08-05T12:35:34.961Z,21.90
2017-08-05T12:38:02.417Z,21.80
2017-08-05T12:40:29.891Z,21.80
2017-08-05T12:42:57.350Z,21.90
2017-08-05T12:45:24.844Z,21.90
2017-08-05T12:47:52.400Z,22.00
2017-08-05T12:50:19.872Z,21.80
2017-08-05T12:52:48.092Z,21.70
2017-08-05T12:55:15.572Z,21.70
2017-08-05T12:57:43.047Z,21.60
2017-08-05T13:00:10.650Z,21.50
2017-08-05T13:02:38.207Z,21.70
2017-08-05T13:05:05.703Z,21.80
2017-08-05T13:07:33.172Z,21.80
2017-08-05T13:10:00.666Z,21.90
2017-08-05T13:12:28.907Z,22.30
2017-08-05T13:14:56.491Z,22.30
2017-08-05T13:17:24.767Z,22.30
2017-08-05T13:19:53.046Z,22.20
2017-08-05T13:22:20.515Z,22.20
2017-08-05T13:24:48.034Z,22.40
2017-08-05T13:27:15.531Z,22.60
2017-08-05T13:29:43.052Z,22.60
2017-08-05T13:32:10.562Z,22.60
2017-08-05T13:34:38.051Z,22.60
2017-08-05T13:37:05.507Z,22.50
2017-08-05T13:39:33.088Z,22.50
2017-08-05T13:42:00.595Z,22.60
2017-08-05T13:44:28.097Z,22.80
2017-08-05T13:46:55.563Z,23.00
2017-08-05T13:49:23.166Z,22.90
2017-08-05T13:51:50.624Z,23.10
2017-08-05T13:54:18.351Z,23.20
2017-08-05T13:56:46.572Z,23.00
2017-08-05T13:59:14.069Z,23.00
2017-08-05T14:01:41.534Z,23.10
2017-08-05T14:04:09.764Z,23.70
2017-08-05T14:06:37.239Z,23.80
2017-08-05T14:09:04.711Z,23.60
2017-08-05T14:11:32.167Z,23.60
2017-08-05T14:13:59.731Z,23.60
2017-08-05T14:16:27.200Z,23.40
2017-08-05T14:18:55.424Z,23.50
2017-08-05T14:21:22.916Z,23.50
2017-08-05T14:23:50.475Z,23.50
2017-08-05T14:26:18.703Z,23.30
2017-08-05T14:28:46.172Z,23.30
2017-08-05T14:31:13.647Z,23.00
2017-08-05T14:33:41.108Z,22.90
2017-08-05T14:36:08.683Z,23.00
2017-08-05T14:38:36.931Z,23.40
2017-08-05T14:41:04.388Z,23.30
2017-08-05T14:43:31.860Z,23.60
2017-08-05T14:45:59.329Z,23.40
2017-08-05T14:48:27.547Z,23.20
2017-08-05T14:50:55.049Z,23.20
2017-08-05T14:53:22.527Z,23.30
2017-08-05T14:55:50.762Z,23.40
2017-08-05T14:58:18.239Z,23.40
2017-08-05T15:00:45.708Z,23.60
2017-08-05T15:03:13.941Z,23.60
2017-08-05T15:05:41.413Z,23.60
2017-08-05T15:08:08.886Z,23.40
2017-08-05T15:10:36.335Z,23.40
2017-08-05T15:13:03.799Z,23.20
2017-08-05T15:15:31.309Z,22.90
2017-08-05T15:17:58.768Z,22.60
2017-08-05T15:20:26.242Z,22.60
2017-08-05T15:22:53.704Z,22.50
2017-08-05T15:25:21.172Z,22.50
2017-08-05T15:27:48.644Z,22.30
2017-08-05T15:30:16.099Z,22.20
2017-08-05T15:32:43.555Z,22.20
2017-08-05T15:35:11.799Z,22.00
2017-08-05T15:37:39.270Z,22.00
2017-08-05T15:40:06.744Z,22.10
2017-08-05T15:42:34.984Z,22.20
2017-08-05T15:45:02.456Z,22.20
2017-08-05T15:47:29.913Z,22.30
2017-08-05T15:49:57.381Z,22.30
2017-08-05T15:52:24.837Z,22.20
2017-08-05T15:54:52.304Z,22.20
2017-08-05T15:57:19.793Z,22.10
2017-08-05T16:42:19.741Z,20.40
2017-08-05T16:44:47.201Z,20.40
2017-08-05T16:47:14.760Z,20.40
2017-08-05T16:49:43.040Z,20.50
2017-08-05T16:52:10.593Z,20.50
2017-08-05T16:54:38.146Z,20.50
2017-08-05T16:57:05.626Z,20.60
2017-08-05T16:59:33.883Z,20.50
2017-08-05T17:02:02.111Z,20.40
2017-08-05T17:04:29.592Z,20.40
2017-08-05T17:06:57.058Z,20.40
2017-08-05T17:09:24.518Z,20.30
2017-08-05T17:11:51.987Z,20.20
2017-08-05T17:14:20.216Z,20.10
2017-08-05T17:16:47.671Z,20.00
2017-08-05T17:19:15.143Z,19.90
2017-08-05T17:21:42.608Z,19.90
2017-08-05T17:24:10.063Z,19.90
2017-08-05T17:26:37.543Z,19.80
2017-08-05T17:29:05.000Z,19.80
2017-08-05T17:31:33.223Z,19.60
2017-08-05T17:34:00.707Z,19.60
2017-08-05T17:36:28.164Z,19.70
2017-08-05T17:38:55.681Z,19.70
2017-08-05T17:41:23.173Z,19.60
2017-08-05T17:43:50.640Z,19.60
2017-08-05T17:46:18.185Z,19.60
2017-08-05T17:48:46.000Z,19.60
2017-08-05T17:51:13.467Z,19.50
2017-08-05T17:53:40.960Z,19.30
2017-08-05T17:56:08.451Z,19.30
2017-08-05T17:58:35.956Z,19.20
2017-08-05T18:01:03.433Z,19.10
2017-08-05T18:03:31.284Z,19.10
2017-08-05T18:05:58.776Z,19.10
2017-08-05T18:08:26.245Z,19.10
2017-08-05T18:10:53.716Z,19.00
2017-08-05T18:13:21.955Z,18.00
2017-08-05T18:15:49.417Z,18.00
2017-08-05T18:18:16.999Z,17.10
2017-08-05T18:20:45.304Z,16.00
2017-08-05T18:23:12.769Z,15.90
2017-08-05T18:25:40.257Z,15.80
2017-08-05T18:28:07.714Z,15.50
2017-08-05T18:30:35.179Z,15.40
2017-08-05T18:33:02.966Z,15.40
2017-08-05T18:35:31.203Z,15.40
2017-08-05T18:37:58.705Z,15.40
2017-08-05T18:40:26.977Z,15.50
2017-08-05T18:42:55.206Z,15.50
2017-08-05T18:45:22.687Z,15.50
2017-08-05T18:47:50.218Z,15.50
2017-08-05T18:50:17.680Z,15.50
2017-08-05T18:52:45.142Z,15.60
2017-08-05T18:55:12.644Z,15.50
2017-08-05T18:57:40.871Z,15.40
2017-08-05T19:00:08.333Z,15.30
2017-08-05T19:02:35.819Z,15.40
2017-08-05T19:05:03.288Z,15.40
2017-08-05T19:07:30.741Z,15.60
2017-08-05T19:09:59.024Z,15.30
2017-08-05T19:12:26.491Z,15.30
2017-08-05T19:14:53.961Z,15.30
2017-08-05T19:17:21.438Z,15.30
2017-08-05T19:19:48.892Z,15.20
2017-08-05T19:22:16.396Z,15.10
2017-08-05T19:24:44.663Z,15.10
2017-08-05T19:27:12.228Z,15.10
2017-08-05T19:29:40.496Z,15.00
2017-08-05T19:32:07.980Z,15.00
2017-08-05T19:34:35.517Z,15.10
2017-08-05T19:37:03.793Z,15.30
2017-08-05T19:39:31.298Z,15.30
2017-08-05T19:41:58.800Z,15.40
2017-08-05T19:44:26.275Z,15.50
2017-08-05T19:46:54.511Z,15.60
2017-08-05T19:49:21.985Z,15.50
2017-08-05T19:51:49.499Z,15.60
2017-08-05T19:54:17.004Z,15.60
2017-08-05T19:56:44.579Z,15.50
2017-08-05T19:59:12.329Z,15.40
2017-08-05T20:01:39.792Z,15.40
2017-08-05T20:04:08.029Z,15.30
2017-08-05T20:06:35.495Z,15.30
2017-08-05T20:09:02.951Z,15.20
2017-08-05T20:11:30.408Z,15.20
2017-08-05T20:13:57.872Z,15.20
2017-08-05T20:16:26.214Z,15.20
2017-08-05T20:18:53.719Z,15.20
2017-08-05T20:21:21.212Z,15.10
2017-08-05T20:23:48.683Z,15.10
2017-08-05T20:26:16.187Z,15.00
2017-08-05T20:28:43.648Z,15.00
2017-08-05T20:31:12.492Z,14.90
2017-08-05T20:33:39.955Z,14.90
2017-08-05T20:36:07.429Z,14.90
2017-08-05T20:38:34.888Z,14.80
2017-08-05T20:41:02.348Z,14.80
2017-08-05T20:43:29.858Z,14.80
2017-08-05T20:45:57.312Z,14.70
2017-08-05T20:48:24.831Z,14.70
2017-08-05T20:50:52.291Z,14.70
2017-08-05T20:53:19.779Z,14.60
2017-08-05T20:55:47.291Z,14.60
2017-08-05T20:58:14.839Z,14.60
2017-08-05T21:00:42.322Z,14.50
2017-08-05T21:03:09.779Z,14.50
2017-08-05T21:05:38.054Z,14.40
2017-08-05T21:08:06.295Z,14.40
2017-08-05T21:10:33.796Z,14.30
2017-08-05T21:13:01.353Z,14.30
2017-08-05T21:15:29.624Z,14.40
2017-08-05T21:17:57.859Z,14.40
2017-08-05T21:20:25.666Z,14.30
2017-08-05T21:22:53.907Z,14.30
2017-08-05T21:25:21.376Z,14.20
2017-08-05T21:27:48.948Z,14.20
2017-08-05T21:30:16.406Z,14.20
2017-08-05T21:32:43.864Z,14.20
2017-08-05T21:35:11.403Z,14.20
2017-08-05T21:37:38.875Z,14.20
2017-08-05T21:40:06.368Z,14.10
2017-08-05T21:42:33.863Z,14.10
2017-08-05T21:45:01.411Z,14.10
2017-08-05T21:47:28.912Z,14.10
2017-08-05T21:49:57.179Z,14.10
2017-08-05T21:52:24.768Z,14.10
2017-08-05T21:54:52.312Z,14.10
2017-08-05T21:57:20.576Z,14.00
2017-08-05T21:59:48.048Z,14.00
2017-08-05T22:02:16.316Z,14.00
2017-08-05T22:04:44.603Z,13.90
2017-08-05T22:07:12.838Z,13.90
2017-08-05T22:09:40.312Z,13.90
2017-08-05T22:12:07.797Z,13.90
2017-08-05T22:14:36.039Z,13.90
2017-08-05T22:17:03.498Z,13.90
2017-08-05T22:19:31.040Z,13.90
2017-08-05T22:21:58.512Z,13.90
2017-08-05T22:24:25.999Z,13.90
2017-08-05T22:26:54.245Z,13.80
2017-08-05T22:29:21.816Z,13.80
2017-08-05T22:31:49.284Z,13.80
2017-08-05T22:34:17.554Z,13.70
2017-08-05T22:36:45.058Z,13.70
2017-08-05T22:39:12.565Z,13.70
2017-08-05T22:41:40.826Z,13.70
2017-08-05T22:44:08.295Z,13.70
2017-08-05T22:46:36.584Z,13.60
2017-08-05T22:49:04.833Z,13.70
2017-08-05T22:51:32.299Z,13.60
2017-08-05T22:53:59.766Z,13.60
2017-08-05T22:56:28.014Z,13.60
2017-08-05T22:58:55.472Z,13.60
2017-08-05T23:01:22.947Z,13.60
2017-08-05T23:03:51.197Z,13.50
2017-08-05T23:06:18.728Z,13.40
2017-08-05T23:08:46.208Z,13.40
2017-08-05T23:11:13.720Z,13.40
2017-08-05T23:13:41.251Z,13.40
2017-08-05T23:16:08.710Z,13.40
2017-08-05T23:18:36.978Z,13.30
2017-08-05T23:21:04.468Z,13.30
2017-08-05T23:23:31.932Z,13.30
2017-08-05T23:25:59.408Z,13.30
2017-08-05T23:28:26.918Z,13.30
2017-08-05T23:30:55.135Z,13.30
2017-08-05T23:33:22.612Z,13.20
2017-08-05T23:35:50.080Z,13.20
2017-08-05T23:38:17.546Z,13.30
2017-08-05T23:40:45.016Z,13.20
2017-08-05T23:43:13.279Z,13.20
2017-08-05T23:45:40.748Z,13.20
2017-08-05T23:48:08.984Z,13.10
2017-08-05T23:50:36.470Z,13.10
2017-08-05T23:53:03.926Z,13.10
2017-08-05T23:55:31.438Z,13.10
2017-08-05T23:57:58.887Z,13.20
